createdAt,value
2023-03-29T00:00:08.965Z,8.65
2023-03-29T00:05:15.089Z,7.18
2023-03-29T00:10:16.816Z,8.25
2023-03-29T00:15:19.175Z,6.00
2023-03-29T00:20:20.815Z,9.73
2023-03-29T00:25:22.514Z,8.80
2023-03-29T00:30:24.244Z,12.55
2023-03-29T00:35:26.202Z,7.38
2023-03-29T00:40:28.009Z,6.88
2023-03-29T00:45:33.973Z,11.50
2023-03-29T00:50:42.771Z,7.47
2023-03-29T00:56:06.292Z,9.23
2023-03-29T01:01:11.596Z,4.78
2023-03-29T01:06:15.192Z,5.68
2023-03-29T01:11:24.416Z,4.03
2023-03-29T01:16:28.624Z,7.93
2023-03-29T01:21:44.649Z,5.53
2023-03-29T01:27:05.359Z,9.10
2023-03-29T01:32:16.969Z,7.60
2023-03-29T01:37:25.099Z,7.07
2023-03-29T01:42:48.321Z,8.60
2023-03-29T01:47:53.199Z,5.57
2023-03-29T01:52:59.756Z,5.88
2023-03-29T01:58:03.078Z,8.15
2023-03-29T02:03:08.125Z,7.00
2023-03-29T02:08:12.251Z,5.55
2023-03-29T02:13:14.251Z,5.18
2023-03-29T02:18:16.545Z,7.22
2023-03-29T02:23:49.144Z,7.95
2023-03-29T02:33:58.809Z,5.10
2023-03-29T02:39:04.871Z,6.65
2023-03-29T02:44:08.526Z,9.55
2023-03-29T02:49:11.177Z,6.82
2023-03-29T02:54:15.702Z,8.25
2023-03-29T03:04:21.121Z,7.80
2023-03-29T03:09:24.122Z,6.28
2023-03-29T03:14:28.299Z,10.55
2023-03-29T03:19:32.020Z,10.95
2023-03-29T03:24:34.526Z,5.78
2023-03-29T03:29:38.521Z,5.50
2023-03-29T03:34:58.981Z,5.55
2023-03-29T03:40:01.470Z,10.07
2023-03-29T03:45:05.109Z,7.95
2023-03-29T03:50:25.521Z,7.13
2023-03-29T03:55:29.992Z,6.47
2023-03-29T04:00:48.790Z,8.05
2023-03-29T04:06:04.939Z,7.93
2023-03-29T04:11:26.536Z,7.13
2023-03-29T04:16:28.623Z,6.82
2023-03-29T04:21:35.843Z,7.85
2023-03-29T04:26:38.144Z,7.15
2023-03-29T04:31:54.547Z,8.23
2023-03-29T04:37:22.045Z,8.73
2023-03-29T04:42:27.500Z,6.03
2023-03-29T04:47:29.956Z,9.23
2023-03-29T04:52:37.100Z,7.10
2023-03-29T04:57:41.292Z,6.40
2023-03-29T05:02:53.467Z,6.43
2023-03-29T05:07:55.856Z,12.23
2023-03-29T05:13:04.354Z,6.32
2023-03-29T05:18:07.196Z,10.15
2023-03-29T05:23:09.709Z,8.68
2023-03-29T05:28:30.053Z,7.75
2023-03-29T05:33:32.348Z,6.68
2023-03-29T05:38:35.810Z,9.57
2023-03-29T05:43:38.321Z,9.20
2023-03-29T05:48:40.157Z,10.38
2023-03-29T05:53:42.145Z,10.15
2023-03-29T05:58:43.910Z,8.77
2023-03-29T06:03:49.239Z,11.02
2023-03-29T06:08:53.392Z,8.45
2023-03-29T06:14:04.599Z,7.38
2023-03-29T06:19:07.492Z,6.55
2023-03-29T06:24:10.594Z,8.68
2023-03-29T06:29:19.225Z,6.45
2023-03-29T06:34:22.482Z,9.18
2023-03-29T06:40:07.281Z,13.27
2023-03-29T06:45:22.458Z,6.03
2023-03-29T06:50:26.191Z,8.15
2023-03-29T06:55:36.304Z,9.10
2023-03-29T07:01:05.038Z,9.48
2023-03-29T07:06:20.457Z,7.78
2023-03-29T07:11:23.237Z,10.40
2023-03-29T07:16:32.761Z,11.55
2023-03-29T07:21:44.129Z,5.45
2023-03-29T07:27:00.264Z,9.98
2023-03-29T07:37:16.209Z,10.18
2023-03-29T07:42:19.964Z,6.22
2023-03-29T07:47:23.147Z,11.00
2023-03-29T07:52:28.033Z,7.65
2023-03-29T07:57:29.812Z,6.03
2023-03-29T08:02:34.412Z,8.52
2023-03-29T08:07:37.823Z,8.30
2023-03-29T08:12:59.442Z,7.82
2023-03-29T08:18:08.608Z,7.78
2023-03-29T08:23:10.749Z,9.43
2023-03-29T08:28:34.873Z,7.07
2023-03-29T08:33:37.097Z,7.32
2023-03-29T08:38:57.462Z,6.57
2023-03-29T08:44:20.449Z,4.97
2023-03-29T08:49:31.870Z,6.72
2023-03-29T08:54:46.587Z,5.53
2023-03-29T09:00:06.148Z,6.28
2023-03-29T09:05:23.076Z,5.07
2023-03-29T09:10:40.869Z,6.88
2023-03-29T09:15:44.659Z,6.05
2023-03-29T09:21:04.821Z,5.80
2023-03-29T09:26:29.505Z,6.57
2023-03-29T09:31:46.077Z,6.72
2023-03-29T09:36:52.806Z,7.32
2023-03-29T09:42:09.009Z,5.47
2023-03-29T09:47:34.306Z,7.22
2023-03-29T09:52:40.232Z,8.27
2023-03-29T09:57:51.946Z,7.63
2023-03-29T10:02:57.846Z,5.75
2023-03-29T10:08:27.967Z,6.75
2023-03-29T10:13:37.171Z,8.43
2023-03-29T10:18:43.180Z,6.68
2023-03-29T10:23:44.967Z,7.57
2023-03-29T10:28:46.767Z,5.47
2023-03-29T10:33:53.925Z,5.43
2023-03-29T10:38:58.210Z,9.30
2023-03-29T10:44:00.920Z,6.97
2023-03-29T10:49:10.320Z,7.72
2023-03-29T10:54:14.153Z,4.90
2023-03-29T10:59:24.566Z,5.22
2023-03-29T11:04:38.178Z,4.47
2023-03-29T11:09:47.811Z,5.60
2023-03-29T11:15:12.786Z,5.05
2023-03-29T11:20:23.401Z,4.85
2023-03-29T11:25:38.342Z,5.25
2023-03-29T11:31:02.141Z,4.97
2023-03-29T11:36:50.502Z,6.80
2023-03-29T11:42:02.394Z,6.55
2023-03-29T11:47:10.123Z,7.30
2023-03-29T11:52:34.105Z,9.93
2023-03-29T11:57:56.936Z,7.90
2023-03-29T12:03:13.888Z,7.28
2023-03-29T12:08:23.565Z,7.15
2023-03-29T12:13:57.510Z,8.18
2023-03-29T12:19:05.266Z,7.85
2023-03-29T12:24:06.933Z,6.18
2023-03-29T12:29:34.281Z,8.70
2023-03-29T12:34:54.787Z,11.07
2023-03-29T12:40:23.378Z,11.43
2023-03-29T12:45:48.730Z,11.60
2023-03-29T12:50:52.819Z,13.70
2023-03-29T12:56:19.784Z,13.00
2023-03-29T13:01:34.957Z,10.40
2023-03-29T13:06:50.134Z,14.10
2023-03-29T13:11:54.012Z,12.25
2023-03-29T13:17:15.580Z,12.98
2023-03-29T13:22:39.082Z,12.85
2023-03-29T13:28:01.761Z,10.85
2023-03-29T13:33:24.530Z,14.55
2023-03-29T13:38:28.044Z,12.48
2023-03-29T13:43:32.877Z,17.25
2023-03-29T13:48:37.691Z,15.00
2023-03-29T13:54:24.105Z,16.38
2023-03-29T13:59:33.823Z,14.27
2023-03-29T14:04:41.980Z,14.30
2023-03-29T14:09:46.145Z,15.18
2023-03-29T14:14:58.726Z,14.15
2023-03-29T14:20:01.623Z,15.32
2023-03-29T14:25:12.330Z,13.63
2023-03-29T14:30:27.469Z,13.85
2023-03-29T14:35:32.326Z,14.55
2023-03-29T14:40:34.841Z,12.40
2023-03-29T14:45:37.448Z,11.73
2023-03-29T14:50:39.407Z,9.10
2023-03-29T14:55:41.758Z,11.65
2023-03-29T15:00:43.461Z,13.43
2023-03-29T15:05:51.217Z,9.52
2023-03-29T15:10:52.952Z,9.35
2023-03-29T15:15:59.437Z,8.65
2023-03-29T15:21:01.952Z,10.82
2023-03-29T15:26:09.674Z,11.43
2023-03-29T15:31:13.338Z,9.93
2023-03-29T15:36:15.541Z,10.57
2023-03-29T15:41:17.366Z,9.35
2023-03-29T15:46:19.033Z,9.23
2023-03-29T15:51:21.366Z,9.70
2023-03-29T15:56:23.278Z,9.82
2023-03-29T16:01:34.789Z,9.57
2023-03-29T16:06:36.718Z,10.43
2023-03-29T16:11:42.651Z,10.63
2023-03-29T16:16:44.730Z,8.38
2023-03-29T16:21:46.454Z,8.82
2023-03-29T16:26:48.555Z,8.23
2023-03-29T16:31:50.479Z,9.35
2023-03-29T16:36:53.098Z,9.18
2023-03-29T16:41:54.782Z,7.65
2023-03-29T16:46:58.328Z,9.00
2023-03-29T16:52:00.029Z,9.40
2023-03-29T16:57:01.702Z,9.57
2023-03-29T17:02:03.456Z,9.13
2023-03-29T17:07:05.112Z,13.55
2023-03-29T17:12:06.863Z,9.65
2023-03-29T17:17:08.840Z,11.88
2023-03-29T17:22:10.510Z,11.93
2023-03-29T17:27:12.142Z,13.70
2023-03-29T17:32:13.929Z,13.57
2023-03-29T17:37:15.830Z,11.73
2023-03-29T17:42:17.532Z,16.30
2023-03-29T17:47:19.228Z,16.77
2023-03-29T17:52:20.948Z,17.85
2023-03-29T17:57:22.778Z,21.63
2023-03-29T18:02:24.841Z,17.77
2023-03-29T18:07:26.742Z,15.95
2023-03-29T18:12:29.079Z,18.67
2023-03-29T18:17:31.544Z,17.60
2023-03-29T18:22:34.134Z,15.02
2023-03-29T18:27:36.786Z,17.05
2023-03-29T18:32:38.471Z,19.23
2023-03-29T18:37:40.363Z,19.60
2023-03-29T18:42:41.988Z,18.25
2023-03-29T18:47:44.025Z,14.93
2023-03-29T18:52:45.887Z,16.33
2023-03-29T18:57:47.538Z,16.58
2023-03-29T19:02:49.362Z,15.93
2023-03-29T19:07:51.175Z,19.20
2023-03-29T19:12:52.915Z,14.60
2023-03-29T19:17:54.697Z,16.20
2023-03-29T19:22:56.509Z,13.95
2023-03-29T19:27:58.819Z,14.60
2023-03-29T19:33:00.733Z,14.30
2023-03-29T19:38:02.529Z,16.38
2023-03-29T19:43:04.770Z,14.20
2023-03-29T19:48:07.159Z,11.40
2023-03-29T19:53:09.372Z,15.07
2023-03-29T19:58:11.067Z,12.52
2023-03-29T20:03:14.024Z,14.82
2023-03-29T20:08:16.130Z,14.90
2023-03-29T20:13:31.474Z,13.52
2023-03-29T20:18:39.837Z,13.88
2023-03-29T20:23:41.614Z,15.75
2023-03-29T20:28:43.421Z,16.70
2023-03-29T20:33:45.350Z,15.00
2023-03-29T20:38:47.001Z,14.02
2023-03-29T20:43:48.866Z,14.45
2023-03-29T20:48:53.537Z,14.73
2023-03-29T20:54:02.252Z,12.60
2023-03-29T20:59:05.834Z,15.13
2023-03-29T21:04:11.068Z,10.63
2023-03-29T21:09:13.672Z,13.38
2023-03-29T21:14:19.608Z,13.20
2023-03-29T21:19:21.777Z,12.20
2023-03-29T21:24:23.447Z,15.48
2023-03-29T21:29:25.486Z,13.07
2023-03-29T21:34:27.227Z,18.40
2023-03-29T21:39:29.236Z,13.73
2023-03-29T21:44:33.173Z,12.02
2023-03-29T21:49:36.331Z,10.20
2023-03-29T21:54:38.004Z,10.98
2023-03-29T21:59:39.689Z,13.73
2023-03-29T22:04:41.433Z,18.25
2023-03-29T22:09:43.125Z,11.55
2023-03-29T22:14:44.817Z,12.50
2023-03-29T22:19:47.724Z,11.98
2023-03-29T22:24:52.711Z,12.23
2023-03-29T22:29:54.379Z,11.27
2023-03-29T22:34:56.336Z,11.38
2023-03-29T22:39:57.999Z,13.05
2023-03-29T22:44:59.660Z,11.85
2023-03-29T22:50:01.725Z,13.73
2023-03-29T22:55:03.473Z,9.48
2023-03-29T23:00:09.188Z,9.73
2023-03-29T23:05:12.219Z,12.00
2023-03-29T23:10:13.949Z,9.50
2023-03-29T23:15:17.039Z,8.63
2023-03-29T23:20:21.461Z,11.02
2023-03-29T23:25:24.669Z,10.73
2023-03-29T23:30:26.849Z,12.07
2023-03-29T23:35:28.527Z,11.20
2023-03-29T23:40:30.228Z,9.57
2023-03-29T23:45:31.862Z,13.20
2023-03-29T23:50:33.502Z,10.52
2023-03-29T23:55:35.148Z,10.13
